sensor_id;sensor_type;location;lat;lon;timestamp;P1;durP1;ratioP1;P2;durP2;ratioP2
52043;SDS011;38053;53.100;6.078;2023-04-03T00:01:29;8.38;;;1.00;;
52043;SDS011;38053;53.100;6.078;2023-04-03T00:03:55;4.82;;;1.55;;
52043;SDS011;38053;53.100;6.078;2023-04-03T00:06:22;5.22;;;1.02;;
52043;SDS011;38053;53.100;6.078;2023-04-03T00:08:48;3.22;;;0.95;;
52043;SDS011;38053;53.100;6.078;2023-04-03T00:11:17;3.83;;;1.40;;
52043;SDS011;38053;53.100;6.078;2023-04-03T00:13:45;1.98;;;0.70;;
52043;SDS011;38053;53.100;6.078;2023-04-03T00:16:11;3.20;;;0.75;;
52043;SDS011;38053;53.100;6.078;2023-04-03T00:18:38;2.83;;;1.10;;
52043;SDS011;38053;53.100;6.078;2023-04-03T00:21:05;4.72;;;1.10;;
52043;SDS011;38053;53.100;6.078;2023-04-03T00:23:33;3.00;;;0.70;;
52043;SDS011;38053;53.100;6.078;2023-04-03T00:25:59;3.42;;;1.02;;
52043;SDS011;38053;53.100;6.078;2023-04-03T00:28:25;7.20;;;0.88;;
52043;SDS011;38053;53.100;6.078;2023-04-03T00:30:51;6.68;;;0.80;;
52043;SDS011;38053;53.100;6.078;2023-04-03T00:33:17;1.38;;;0.55;;
52043;SDS011;38053;53.100;6.078;2023-04-03T00:35:49;2.30;;;0.93;;
52043;SDS011;38053;53.100;6.078;2023-04-03T00:38:15;2.17;;;0.90;;
52043;SDS011;38053;53.100;6.078;2023-04-03T00:40:43;4.82;;;0.95;;
52043;SDS011;38053;53.100;6.078;2023-04-03T00:43:12;7.45;;;0.80;;
52043;SDS011;38053;53.100;6.078;2023-04-03T00:45:50;2.42;;;0.70;;
52043;SDS011;38053;53.100;6.078;2023-04-03T00:48:20;3.60;;;0.65;;
52043;SDS011;38053;53.100;6.078;2023-04-03T00:50:59;3.55;;;0.90;;
52043;SDS011;38053;53.100;6.078;2023-04-03T00:53:28;3.08;;;0.80;;
52043;SDS011;38053;53.100;6.078;2023-04-03T00:56:02;3.40;;;1.83;;
52043;SDS011;38053;53.100;6.078;2023-04-03T00:58:40;3.50;;;0.90;;
52043;SDS011;38053;53.100;6.078;2023-04-03T01:01:18;4.43;;;1.52;;
52043;SDS011;38053;53.100;6.078;2023-04-03T01:03:50;7.30;;;1.30;;
52043;SDS011;38053;53.100;6.078;2023-04-03T01:06:17;3.15;;;0.90;;
52043;SDS011;38053;53.100;6.078;2023-04-03T01:08:58;1.73;;;0.60;;
52043;SDS011;38053;53.100;6.078;2023-04-03T01:11:28;2.67;;;0.88;;
52043;SDS011;38053;53.100;6.078;2023-04-03T01:13:53;9.18;;;1.73;;
52043;SDS011;38053;53.100;6.078;2023-04-03T01:16:19;4.28;;;1.10;;
52043;SDS011;38053;53.100;6.078;2023-04-03T01:18:49;7.80;;;1.05;;
52043;SDS011;38053;53.100;6.078;2023-04-03T01:24:30;4.03;;;0.88;;
52043;SDS011;38053;53.100;6.078;2023-04-03T01:27:00;6.78;;;1.10;;
52043;SDS011;38053;53.100;6.078;2023-04-03T01:29:31;4.72;;;1.15;;
52043;SDS011;38053;53.100;6.078;2023-04-03T01:31:57;2.67;;;1.00;;
52043;SDS011;38053;53.100;6.078;2023-04-03T01:34:25;4.63;;;1.38;;
52043;SDS011;38053;53.100;6.078;2023-04-03T01:36:52;5.07;;;1.20;;
52043;SDS011;38053;53.100;6.078;2023-04-03T01:39:21;4.97;;;1.08;;
52043;SDS011;38053;53.100;6.078;2023-04-03T01:41:50;3.63;;;0.95;;
52043;SDS011;38053;53.100;6.078;2023-04-03T01:44:16;5.20;;;1.23;;
52043;SDS011;38053;53.100;6.078;2023-04-03T01:46:41;4.97;;;1.25;;
52043;SDS011;38053;53.100;6.078;2023-04-03T01:49:07;3.85;;;1.58;;
52043;SDS011;38053;53.100;6.078;2023-04-03T01:51:42;3.50;;;0.85;;
52043;SDS011;38053;53.100;6.078;2023-04-03T01:54:08;8.73;;;2.20;;
52043;SDS011;38053;53.100;6.078;2023-04-03T01:56:34;5.80;;;1.00;;
52043;SDS011;38053;53.100;6.078;2023-04-03T01:59:02;3.53;;;1.15;;
52043;SDS011;38053;53.100;6.078;2023-04-03T02:01:28;4.05;;;1.15;;
52043;SDS011;38053;53.100;6.078;2023-04-03T02:03:57;5.20;;;1.40;;
52043;SDS011;38053;53.100;6.078;2023-04-03T02:06:23;2.95;;;1.48;;
52043;SDS011;38053;53.100;6.078;2023-04-03T02:08:50;6.13;;;1.20;;
52043;SDS011;38053;53.100;6.078;2023-04-03T02:11:15;3.97;;;1.55;;
52043;SDS011;38053;53.100;6.078;2023-04-03T02:13:41;4.75;;;1.30;;
52043;SDS011;38053;53.100;6.078;2023-04-03T02:16:10;4.60;;;1.13;;
52043;SDS011;38053;53.100;6.078;2023-04-03T02:18:39;4.55;;;1.25;;
52043;SDS011;38053;53.100;6.078;2023-04-03T02:21:05;3.72;;;1.38;;
52043;SDS011;38053;53.100;6.078;2023-04-03T02:23:31;6.63;;;1.52;;
52043;SDS011;38053;53.100;6.078;2023-04-03T02:26:10;4.40;;;1.65;;
52043;SDS011;38053;53.100;6.078;2023-04-03T02:28:38;5.90;;;1.38;;
52043;SDS011;38053;53.100;6.078;2023-04-03T02:31:04;7.47;;;1.40;;
52043;SDS011;38053;53.100;6.078;2023-04-03T02:33:31;4.43;;;1.55;;
52043;SDS011;38053;53.100;6.078;2023-04-03T02:36:00;6.38;;;1.40;;
52043;SDS011;38053;53.100;6.078;2023-04-03T02:38:26;4.90;;;1.75;;
52043;SDS011;38053;53.100;6.078;2023-04-03T02:40:52;5.88;;;1.33;;
52043;SDS011;38053;53.100;6.078;2023-04-03T02:43:18;8.93;;;1.60;;
52043;SDS011;38053;53.100;6.078;2023-04-03T02:45:43;5.63;;;1.30;;
52043;SDS011;38053;53.100;6.078;2023-04-03T02:48:09;3.30;;;1.80;;
52043;SDS011;38053;53.100;6.078;2023-04-03T02:50:37;4.50;;;1.13;;
52043;SDS011;38053;53.100;6.078;2023-04-03T02:53:02;10.65;;;2.10;;
52043;SDS011;38053;53.100;6.078;2023-04-03T02:55:28;7.70;;;1.48;;
52043;SDS011;38053;53.100;6.078;2023-04-03T02:57:54;3.53;;;1.08;;
52043;SDS011;38053;53.100;6.078;2023-04-03T03:00:20;5.47;;;1.70;;
52043;SDS011;38053;53.100;6.078;2023-04-03T03:02:49;4.20;;;1.42;;
52043;SDS011;38053;53.100;6.078;2023-04-03T03:05:18;4.93;;;1.48;;
52043;SDS011;38053;53.100;6.078;2023-04-03T03:07:44;8.50;;;1.95;;
52043;SDS011;38053;53.100;6.078;2023-04-03T03:10:10;5.43;;;2.67;;
52043;SDS011;38053;53.100;6.078;2023-04-03T03:12:35;5.32;;;1.50;;
52043;SDS011;38053;53.100;6.078;2023-04-03T03:15:01;5.53;;;1.60;;
52043;SDS011;38053;53.100;6.078;2023-04-03T03:17:27;8.15;;;1.92;;
52043;SDS011;38053;53.100;6.078;2023-04-03T03:19:53;5.28;;;1.90;;
52043;SDS011;38053;53.100;6.078;2023-04-03T03:22:19;6.85;;;1.50;;
52043;SDS011;38053;53.100;6.078;2023-04-03T03:24:45;5.40;;;1.65;;
52043;SDS011;38053;53.100;6.078;2023-04-03T03:27:10;5.93;;;1.70;;
52043;SDS011;38053;53.100;6.078;2023-04-03T03:29:37;7.30;;;2.03;;
52043;SDS011;38053;53.100;6.078;2023-04-03T03:32:05;6.82;;;2.15;;
52043;SDS011;38053;53.100;6.078;2023-04-03T03:34:31;6.70;;;1.67;;
52043;SDS011;38053;53.100;6.078;2023-04-03T03:37:00;5.75;;;1.80;;
52043;SDS011;38053;53.100;6.078;2023-04-03T03:39:27;9.15;;;2.38;;
52043;SDS011;38053;53.100;6.078;2023-04-03T03:41:54;7.75;;;1.98;;
52043;SDS011;38053;53.100;6.078;2023-04-03T03:44:20;6.95;;;2.80;;
52043;SDS011;38053;53.100;6.078;2023-04-03T03:46:46;4.78;;;1.65;;
52043;SDS011;38053;53.100;6.078;2023-04-03T03:49:15;5.75;;;1.73;;
52043;SDS011;38053;53.100;6.078;2023-04-03T03:51:41;4.40;;;1.48;;
52043;SDS011;38053;53.100;6.078;2023-04-03T03:54:07;8.50;;;2.17;;
52043;SDS011;38053;53.100;6.078;2023-04-03T03:56:39;4.80;;;1.50;;
52043;SDS011;38053;53.100;6.078;2023-04-03T03:59:05;6.47;;;1.88;;
52043;SDS011;38053;53.100;6.078;2023-04-03T04:01:31;8.40;;;2.08;;
52043;SDS011;38053;53.100;6.078;2023-04-03T04:03:57;11.20;;;1.92;;
52043;SDS011;38053;53.100;6.078;2023-04-03T04:06:23;7.47;;;1.67;;
52043;SDS011;38053;53.100;6.078;2023-04-03T04:08:52;12.02;;;2.97;;
52043;SDS011;38053;53.100;6.078;2023-04-03T04:11:18;12.00;;;2.05;;
52043;SDS011;38053;53.100;6.078;2023-04-03T04:13:46;4.30;;;1.58;;
52043;SDS011;38053;53.100;6.078;2023-04-03T04:16:12;9.35;;;2.17;;
52043;SDS011;38053;53.100;6.078;2023-04-03T04:18:42;13.35;;;1.63;;
52043;SDS011;38053;53.100;6.078;2023-04-03T04:21:07;9.18;;;1.42;;
52043;SDS011;38053;53.100;6.078;2023-04-03T04:23:33;9.23;;;2.00;;
52043;SDS011;38053;53.100;6.078;2023-04-03T04:25:59;9.73;;;2.13;;
52043;SDS011;38053;53.100;6.078;2023-04-03T04:28:25;9.98;;;2.67;;
52043;SDS011;38053;53.100;6.078;2023-04-03T04:30:50;7.10;;;2.83;;
52043;SDS011;38053;53.100;6.078;2023-04-03T04:33:16;5.63;;;1.70;;
52043;SDS011;38053;53.100;6.078;2023-04-03T04:35:42;6.03;;;1.45;;
52043;SDS011;38053;53.100;6.078;2023-04-03T04:38:12;8.98;;;2.33;;
52043;SDS011;38053;53.100;6.078;2023-04-03T04:40:37;13.02;;;2.63;;
52043;SDS011;38053;53.100;6.078;2023-04-03T04:43:03;9.10;;;1.98;;
52043;SDS011;38053;53.100;6.078;2023-04-03T04:45:29;7.47;;;2.45;;
52043;SDS011;38053;53.100;6.078;2023-04-03T04:47:55;10.38;;;3.88;;
52043;SDS011;38053;53.100;6.078;2023-04-03T04:50:24;11.95;;;2.53;;
52043;SDS011;38053;53.100;6.078;2023-04-03T04:52:50;13.95;;;2.47;;
52043;SDS011;38053;53.100;6.078;2023-04-03T04:55:16;22.35;;;3.90;;
52043;SDS011;38053;53.100;6.078;2023-04-03T04:57:43;7.80;;;3.38;;
52043;SDS011;38053;53.100;6.078;2023-04-03T05:00:12;9.60;;;2.55;;
52043;SDS011;38053;53.100;6.078;2023-04-03T05:02:38;8.48;;;2.95;;
52043;SDS011;38053;53.100;6.078;2023-04-03T05:05:04;13.77;;;2.92;;
52043;SDS011;38053;53.100;6.078;2023-04-03T05:07:30;8.73;;;2.35;;
52043;SDS011;38053;53.100;6.078;2023-04-03T05:09:56;5.90;;;2.40;;
52043;SDS011;38053;53.100;6.078;2023-04-03T05:12:22;9.18;;;2.72;;
52043;SDS011;38053;53.100;6.078;2023-04-03T05:14:48;14.70;;;4.80;;
52043;SDS011;38053;53.100;6.078;2023-04-03T05:17:13;8.50;;;2.70;;
52043;SDS011;38053;53.100;6.078;2023-04-03T05:19:39;11.77;;;2.70;;
52043;SDS011;38053;53.100;6.078;2023-04-03T05:22:05;6.40;;;2.63;;
52043;SDS011;38053;53.100;6.078;2023-04-03T05:24:31;13.40;;;2.67;;
52043;SDS011;38053;53.100;6.078;2023-04-03T05:26:56;12.05;;;2.20;;
52043;SDS011;38053;53.100;6.078;2023-04-03T05:29:22;8.98;;;2.38;;
52043;SDS011;38053;53.100;6.078;2023-04-03T05:31:51;31.83;;;5.38;;
52043;SDS011;38053;53.100;6.078;2023-04-03T05:34:22;9.43;;;2.78;;
52043;SDS011;38053;53.100;6.078;2023-04-03T05:36:48;7.97;;;2.67;;
52043;SDS011;38053;53.100;6.078;2023-04-03T05:39:13;9.38;;;2.92;;
52043;SDS011;38053;53.100;6.078;2023-04-03T05:41:40;12.95;;;2.97;;
52043;SDS011;38053;53.100;6.078;2023-04-03T05:44:09;12.77;;;3.03;;
52043;SDS011;38053;53.100;6.078;2023-04-03T05:46:35;14.90;;;2.85;;
52043;SDS011;38053;53.100;6.078;2023-04-03T05:49:00;7.93;;;2.60;;
52043;SDS011;38053;53.100;6.078;2023-04-03T05:51:31;12.65;;;3.45;;
52043;SDS011;38053;53.100;6.078;2023-04-03T05:54:02;14.75;;;2.65;;
52043;SDS011;38053;53.100;6.078;2023-04-03T05:56:44;9.60;;;2.40;;
52043;SDS011;38053;53.100;6.078;2023-04-03T05:59:13;8.90;;;3.40;;
52043;SDS011;38053;53.100;6.078;2023-04-03T06:01:41;13.82;;;2.50;;
52043;SDS011;38053;53.100;6.078;2023-04-03T06:04:10;12.98;;;3.15;;
52043;SDS011;38053;53.100;6.078;2023-04-03T06:06:47;5.53;;;2.80;;
52043;SDS011;38053;53.100;6.078;2023-04-03T06:09:17;9.05;;;2.53;;
52043;SDS011;38053;53.100;6.078;2023-04-03T06:11:46;10.18;;;2.90;;
52043;SDS011;38053;53.100;6.078;2023-04-03T06:14:15;16.17;;;2.63;;
52043;SDS011;38053;53.100;6.078;2023-04-03T06:16:41;7.78;;;2.90;;
52043;SDS011;38053;53.100;6.078;2023-04-03T06:19:07;8.18;;;2.65;;
52043;SDS011;38053;53.100;6.078;2023-04-03T06:21:34;7.80;;;3.25;;
52043;SDS011;38053;53.100;6.078;2023-04-03T06:24:01;9.18;;;2.63;;
52043;SDS011;38053;53.100;6.078;2023-04-03T06:26:28;11.73;;;3.00;;
52043;SDS011;38053;53.100;6.078;2023-04-03T06:28:56;17.23;;;4.25;;
52043;SDS011;38053;53.100;6.078;2023-04-03T06:31:22;8.55;;;4.15;;
52043;SDS011;38053;53.100;6.078;2023-04-03T06:33:48;11.98;;;3.45;;
52043;SDS011;38053;53.100;6.078;2023-04-03T06:36:13;9.93;;;3.30;;
52043;SDS011;38053;53.100;6.078;2023-04-03T06:38:40;9.55;;;4.03;;
52043;SDS011;38053;53.100;6.078;2023-04-03T06:41:06;10.43;;;2.88;;
52043;SDS011;38053;53.100;6.078;2023-04-03T06:43:32;9.07;;;2.95;;
52043;SDS011;38053;53.100;6.078;2023-04-03T06:45:58;6.88;;;3.22;;
52043;SDS011;38053;53.100;6.078;2023-04-03T06:48:24;19.08;;;4.63;;
52043;SDS011;38053;53.100;6.078;2023-04-03T06:50:53;5.80;;;2.88;;
52043;SDS011;38053;53.100;6.078;2023-04-03T06:53:19;11.98;;;3.15;;
52043;SDS011;38053;53.100;6.078;2023-04-03T06:55:45;10.93;;;2.80;;
52043;SDS011;38053;53.100;6.078;2023-04-03T06:58:18;11.38;;;3.42;;
52043;SDS011;38053;53.100;6.078;2023-04-03T07:00:44;13.50;;;3.70;;
52043;SDS011;38053;53.100;6.078;2023-04-03T07:03:10;9.55;;;2.85;;
52043;SDS011;38053;53.100;6.078;2023-04-03T07:05:38;10.52;;;3.42;;
52043;SDS011;38053;53.100;6.078;2023-04-03T07:08:05;10.05;;;3.08;;
52043;SDS011;38053;53.100;6.078;2023-04-03T07:10:31;8.63;;;2.30;;
52043;SDS011;38053;53.100;6.078;2023-04-03T07:13:08;7.22;;;3.25;;
52043;SDS011;38053;53.100;6.078;2023-04-03T07:15:34;18.08;;;3.10;;
52043;SDS011;38053;53.100;6.078;2023-04-03T07:18:02;5.13;;;2.47;;
52043;SDS011;38053;53.100;6.078;2023-04-03T07:20:27;12.35;;;2.40;;
52043;SDS011;38053;53.100;6.078;2023-04-03T07:22:53;7.82;;;2.70;;
52043;SDS011;38053;53.100;6.078;2023-04-03T07:25:19;9.77;;;2.40;;
52043;SDS011;38053;53.100;6.078;2023-04-03T07:27:45;7.55;;;2.85;;
52043;SDS011;38053;53.100;6.078;2023-04-03T07:30:11;6.78;;;3.30;;
52043;SDS011;38053;53.100;6.078;2023-04-03T07:32:42;16.15;;;2.80;;
52043;SDS011;38053;53.100;6.078;2023-04-03T07:35:08;8.32;;;2.63;;
52043;SDS011;38053;53.100;6.078;2023-04-03T07:37:37;6.30;;;1.92;;
52043;SDS011;38053;53.100;6.078;2023-04-03T07:40:02;3.60;;;2.10;;
52043;SDS011;38053;53.100;6.078;2023-04-03T07:42:29;11.05;;;2.42;;
52043;SDS011;38053;53.100;6.078;2023-04-03T07:44:57;11.15;;;2.55;;
52043;SDS011;38053;53.100;6.078;2023-04-03T07:47:23;10.82;;;3.28;;
52043;SDS011;38053;53.100;6.078;2023-04-03T07:49:49;9.52;;;2.53;;
52043;SDS011;38053;53.100;6.078;2023-04-03T07:52:14;11.30;;;2.15;;
52043;SDS011;38053;53.100;6.078;2023-04-03T07:54:41;8.57;;;3.03;;
52043;SDS011;38053;53.100;6.078;2023-04-03T07:57:09;6.13;;;2.25;;
52043;SDS011;38053;53.100;6.078;2023-04-03T07:59:35;9.73;;;2.22;;
52043;SDS011;38053;53.100;6.078;2023-04-03T08:02:01;11.32;;;2.58;;
52043;SDS011;38053;53.100;6.078;2023-04-03T08:04:29;8.85;;;2.53;;
52043;SDS011;38053;53.100;6.078;2023-04-03T08:06:55;4.95;;;1.55;;
52043;SDS011;38053;53.100;6.078;2023-04-03T08:09:21;7.25;;;2.65;;
52043;SDS011;38053;53.100;6.078;2023-04-03T08:11:50;15.88;;;2.78;;
52043;SDS011;38053;53.100;6.078;2023-04-03T08:14:22;7.03;;;2.10;;
52043;SDS011;38053;53.100;6.078;2023-04-03T08:20:18;7.68;;;2.10;;
52043;SDS011;38053;53.100;6.078;2023-04-03T08:22:57;6.45;;;2.25;;
52043;SDS011;38053;53.100;6.078;2023-04-03T08:25:39;10.45;;;1.98;;
52043;SDS011;38053;53.100;6.078;2023-04-03T08:28:14;4.10;;;1.55;;
52043;SDS011;38053;53.100;6.078;2023-04-03T08:31:01;13.30;;;3.15;;
52043;SDS011;38053;53.100;6.078;2023-04-03T08:33:47;8.37;;;1.47;;
52043;SDS011;38053;53.100;6.078;2023-04-03T08:36:24;7.63;;;1.67;;
52043;SDS011;38053;53.100;6.078;2023-04-03T08:39:24;4.68;;;1.35;;
52043;SDS011;38053;53.100;6.078;2023-04-03T08:42:05;11.00;;;2.08;;
52043;SDS011;38053;53.100;6.078;2023-04-03T08:50:38;4.97;;;1.13;;
52043;SDS011;38053;53.100;6.078;2023-04-03T08:53:06;11.05;;;1.95;;
52043;SDS011;38053;53.100;6.078;2023-04-03T08:56:05;7.80;;;1.40;;
52043;SDS011;38053;53.100;6.078;2023-04-03T08:58:50;4.63;;;1.10;;
52043;SDS011;38053;53.100;6.078;2023-04-03T09:01:48;6.40;;;1.50;;
52043;SDS011;38053;53.100;6.078;2023-04-03T09:04:27;4.22;;;1.45;;
52043;SDS011;38053;53.100;6.078;2023-04-03T09:07:19;5.30;;;1.60;;
52043;SDS011;38053;53.100;6.078;2023-04-03T09:09:57;6.05;;;1.20;;
52043;SDS011;38053;53.100;6.078;2023-04-03T09:12:47;4.75;;;1.15;;
52043;SDS011;38053;53.100;6.078;2023-04-03T09:15:41;2.97;;;1.13;;
52043;SDS011;38053;53.100;6.078;2023-04-03T09:27:49;5.45;;;2.25;;
52043;SDS011;38053;53.100;6.078;2023-04-03T09:33:26;4.53;;;1.20;;
52043;SDS011;38053;53.100;6.078;2023-04-03T09:39:28;4.78;;;2.03;;
52043;SDS011;38053;53.100;6.078;2023-04-03T09:42:26;2.88;;;1.05;;
52043;SDS011;38053;53.100;6.078;2023-04-03T09:45:23;3.28;;;1.10;;
52043;SDS011;38053;53.100;6.078;2023-04-03T09:48:24;4.43;;;1.20;;
52043;SDS011;38053;53.100;6.078;2023-04-03T09:55:08;5.38;;;1.25;;
52043;SDS011;38053;53.100;6.078;2023-04-03T10:12:24;5.15;;;1.13;;
52043;SDS011;38053;53.100;6.078;2023-04-03T10:15:00;4.10;;;1.10;;
52043;SDS011;38053;53.100;6.078;2023-04-03T10:28:45;4.32;;;1.25;;
52043;SDS011;38053;53.100;6.078;2023-04-03T10:32:31;3.03;;;1.27;;
52043;SDS011;38053;53.100;6.078;2023-04-03T10:38:01;4.10;;;0.95;;
52043;SDS011;38053;53.100;6.078;2023-04-03T10:46:45;2.35;;;0.75;;
52043;SDS011;38053;53.100;6.078;2023-04-03T11:06:17;4.78;;;0.98;;
52043;SDS011;38053;53.100;6.078;2023-04-03T11:09:26;6.55;;;1.70;;
52043;SDS011;38053;53.100;6.078;2023-04-03T11:12:27;2.67;;;0.90;;
52043;SDS011;38053;53.100;6.078;2023-04-03T11:24:05;2.90;;;1.05;;
52043;SDS011;38053;53.100;6.078;2023-04-03T11:26:39;4.95;;;0.90;;
52043;SDS011;38053;53.100;6.078;2023-04-03T11:29:13;3.10;;;1.10;;
52043;SDS011;38053;53.100;6.078;2023-04-03T11:32:01;5.63;;;1.15;;
52043;SDS011;38053;53.100;6.078;2023-04-03T11:34:58;2.97;;;0.88;;
52043;SDS011;38053;53.100;6.078;2023-04-03T11:37:38;1.15;;;0.65;;
52043;SDS011;38053;53.100;6.078;2023-04-03T12:00:57;3.83;;;0.82;;
52043;SDS011;38053;53.100;6.078;2023-04-03T12:14:02;2.10;;;0.82;;
52043;SDS011;38053;53.100;6.078;2023-04-03T12:27:42;2.88;;;1.00;;
52043;SDS011;38053;53.100;6.078;2023-04-03T12:30:26;4.15;;;0.93;;
52043;SDS011;38053;53.100;6.078;2023-04-03T12:36:42;3.10;;;1.23;;
52043;SDS011;38053;53.100;6.078;2023-04-03T12:42:56;2.90;;;1.08;;
52043;SDS011;38053;53.100;6.078;2023-04-03T12:59:32;2.85;;;0.80;;
52043;SDS011;38053;53.100;6.078;2023-04-03T13:15:25;3.30;;;1.05;;
52043;SDS011;38053;53.100;6.078;2023-04-03T13:18:20;2.72;;;0.98;;
52043;SDS011;38053;53.100;6.078;2023-04-03T13:21:40;2.88;;;1.08;;
52043;SDS011;38053;53.100;6.078;2023-04-03T13:24:12;4.40;;;1.70;;
52043;SDS011;38053;53.100;6.078;2023-04-03T13:26:38;5.82;;;1.20;;
52043;SDS011;38053;53.100;6.078;2023-04-03T13:29:14;5.88;;;1.20;;
52043;SDS011;38053;53.100;6.078;2023-04-03T13:31:55;3.63;;;1.15;;
52043;SDS011;38053;53.100;6.078;2023-04-03T13:34:21;4.30;;;1.10;;
52043;SDS011;38053;53.100;6.078;2023-04-03T13:41:53;3.60;;;0.95;;
52043;SDS011;38053;53.100;6.078;2023-04-03T13:47:22;4.65;;;1.42;;
52043;SDS011;38053;53.100;6.078;2023-04-03T13:50:00;2.78;;;1.20;;
52043;SDS011;38053;53.100;6.078;2023-04-03T13:52:54;4.78;;;1.08;;
52043;SDS011;38053;53.100;6.078;2023-04-03T13:55:35;4.07;;;1.13;;
52043;SDS011;38053;53.100;6.078;2023-04-03T13:58:27;5.32;;;1.35;;
52043;SDS011;38053;53.100;6.078;2023-04-03T14:08:49;3.78;;;1.25;;
52043;SDS011;38053;53.100;6.078;2023-04-03T14:11:20;3.80;;;1.23;;
52043;SDS011;38053;53.100;6.078;2023-04-03T14:14:09;4.10;;;1.20;;
52043;SDS011;38053;53.100;6.078;2023-04-03T14:16:43;3.25;;;1.08;;
52043;SDS011;38053;53.100;6.078;2023-04-03T14:19:46;2.10;;;1.02;;
52043;SDS011;38053;53.100;6.078;2023-04-03T14:22:16;4.35;;;1.50;;
52043;SDS011;38053;53.100;6.078;2023-04-03T14:24:44;3.90;;;1.48;;
52043;SDS011;38053;53.100;6.078;2023-04-03T14:27:26;4.07;;;1.23;;
52043;SDS011;38053;53.100;6.078;2023-04-03T14:29:57;5.10;;;1.30;;
52043;SDS011;38053;53.100;6.078;2023-04-03T14:32:27;4.30;;;1.02;;
52043;SDS011;38053;53.100;6.078;2023-04-03T14:34:55;3.03;;;1.00;;
52043;SDS011;38053;53.100;6.078;2023-04-03T14:37:23;2.90;;;1.10;;
52043;SDS011;38053;53.100;6.078;2023-04-03T14:39:53;3.90;;;1.20;;
52043;SDS011;38053;53.100;6.078;2023-04-03T14:42:23;3.28;;;0.90;;
52043;SDS011;38053;53.100;6.078;2023-04-03T14:44:57;3.33;;;1.08;;
52043;SDS011;38053;53.100;6.078;2023-04-03T14:47:25;4.43;;;1.65;;
52043;SDS011;38053;53.100;6.078;2023-04-03T14:49:53;4.47;;;1.17;;
52043;SDS011;38053;53.100;6.078;2023-04-03T14:52:22;4.07;;;1.25;;
52043;SDS011;38053;53.100;6.078;2023-04-03T14:54:58;3.92;;;1.05;;
52043;SDS011;38053;53.100;6.078;2023-04-03T14:57:26;2.42;;;1.45;;
52043;SDS011;38053;53.100;6.078;2023-04-03T14:59:55;4.35;;;1.10;;
52043;SDS011;38053;53.100;6.078;2023-04-03T15:02:29;2.33;;;0.90;;
52043;SDS011;38053;53.100;6.078;2023-04-03T15:05:00;3.35;;;1.25;;
52043;SDS011;38053;53.100;6.078;2023-04-03T15:07:29;3.58;;;1.17;;
52043;SDS011;38053;53.100;6.078;2023-04-03T15:09:59;4.50;;;0.98;;
52043;SDS011;38053;53.100;6.078;2023-04-03T15:12:28;4.07;;;1.33;;
52043;SDS011;38053;53.100;6.078;2023-04-03T15:14:54;2.95;;;1.17;;
52043;SDS011;38053;53.100;6.078;2023-04-03T15:17:21;4.97;;;1.75;;
52043;SDS011;38053;53.100;6.078;2023-04-03T15:19:47;5.22;;;1.58;;
52043;SDS011;38053;53.100;6.078;2023-04-03T15:22:17;5.60;;;1.60;;
52043;SDS011;38053;53.100;6.078;2023-04-03T15:24:44;6.18;;;1.30;;
52043;SDS011;38053;53.100;6.078;2023-04-03T15:27:10;6.70;;;1.92;;
52043;SDS011;38053;53.100;6.078;2023-04-03T15:29:38;3.92;;;1.75;;
52043;SDS011;38053;53.100;6.078;2023-04-03T15:32:06;7.35;;;2.33;;
52043;SDS011;38053;53.100;6.078;2023-04-03T15:34:34;3.72;;;1.52;;
52043;SDS011;38053;53.100;6.078;2023-04-03T15:37:01;4.35;;;1.73;;
52043;SDS011;38053;53.100;6.078;2023-04-03T15:39:27;2.92;;;1.30;;
52043;SDS011;38053;53.100;6.078;2023-04-03T15:41:53;5.07;;;1.27;;
52043;SDS011;38053;53.100;6.078;2023-04-03T15:44:19;5.15;;;1.73;;
52043;SDS011;38053;53.100;6.078;2023-04-03T15:46:46;6.90;;;1.40;;
52043;SDS011;38053;53.100;6.078;2023-04-03T15:49:13;7.03;;;1.63;;
52043;SDS011;38053;53.100;6.078;2023-04-03T15:51:40;4.40;;;1.67;;
52043;SDS011;38053;53.100;6.078;2023-04-03T15:54:06;8.38;;;1.92;;
52043;SDS011;38053;53.100;6.078;2023-04-03T15:56:31;4.32;;;1.42;;
52043;SDS011;38053;53.100;6.078;2023-04-03T15:58:57;7.15;;;1.25;;
52043;SDS011;38053;53.100;6.078;2023-04-03T16:01:23;6.78;;;1.92;;
52043;SDS011;38053;53.100;6.078;2023-04-03T16:03:49;6.20;;;1.70;;
52043;SDS011;38053;53.100;6.078;2023-04-03T16:06:16;6.85;;;1.80;;
52043;SDS011;38053;53.100;6.078;2023-04-03T16:08:43;4.72;;;1.60;;
52043;SDS011;38053;53.100;6.078;2023-04-03T16:11:13;6.03;;;1.15;;
52043;SDS011;38053;53.100;6.078;2023-04-03T16:13:40;4.78;;;1.80;;
52043;SDS011;38053;53.100;6.078;2023-04-03T16:16:11;4.70;;;1.10;;
52043;SDS011;38053;53.100;6.078;2023-04-03T16:18:43;5.45;;;1.30;;
52043;SDS011;38053;53.100;6.078;2023-04-03T16:21:21;4.60;;;1.52;;
52043;SDS011;38053;53.100;6.078;2023-04-03T16:23:47;2.78;;;0.90;;
52043;SDS011;38053;53.100;6.078;2023-04-03T16:26:13;9.13;;;1.30;;
52043;SDS011;38053;53.100;6.078;2023-04-03T16:28:40;4.85;;;0.90;;
52043;SDS011;38053;53.100;6.078;2023-04-03T16:31:06;2.78;;;1.13;;
52043;SDS011;38053;53.100;6.078;2023-04-03T16:33:33;3.03;;;1.00;;
52043;SDS011;38053;53.100;6.078;2023-04-03T16:35:59;2.83;;;0.98;;
52043;SDS011;38053;53.100;6.078;2023-04-03T16:38:25;3.50;;;1.00;;
52043;SDS011;38053;53.100;6.078;2023-04-03T16:40:51;3.08;;;1.15;;
52043;SDS011;38053;53.100;6.078;2023-04-03T16:43:21;3.83;;;1.15;;
52043;SDS011;38053;53.100;6.078;2023-04-03T16:45:47;4.72;;;1.20;;
52043;SDS011;38053;53.100;6.078;2023-04-03T16:48:13;5.75;;;1.27;;
52043;SDS011;38053;53.100;6.078;2023-04-03T16:50:39;5.72;;;1.20;;
52043;SDS011;38053;53.100;6.078;2023-04-03T16:53:05;6.10;;;1.25;;
52043;SDS011;38053;53.100;6.078;2023-04-03T16:55:34;9.95;;;1.88;;
52043;SDS011;38053;53.100;6.078;2023-04-03T16:58:01;3.22;;;1.27;;
52043;SDS011;38053;53.100;6.078;2023-04-03T17:00:29;4.00;;;1.33;;
52043;SDS011;38053;53.100;6.078;2023-04-03T17:02:55;6.20;;;1.45;;
52043;SDS011;38053;53.100;6.078;2023-04-03T17:05:21;4.40;;;1.58;;
52043;SDS011;38053;53.100;6.078;2023-04-03T17:07:50;4.22;;;1.20;;
52043;SDS011;38053;53.100;6.078;2023-04-03T17:10:16;4.88;;;1.30;;
52043;SDS011;38053;53.100;6.078;2023-04-03T17:12:45;10.18;;;1.63;;
52043;SDS011;38053;53.100;6.078;2023-04-03T17:15:19;6.43;;;2.00;;
52043;SDS011;38053;53.100;6.078;2023-04-03T17:17:50;6.07;;;1.92;;
52043;SDS011;38053;53.100;6.078;2023-04-03T17:20:17;6.30;;;1.50;;
52043;SDS011;38053;53.100;6.078;2023-04-03T17:22:43;4.95;;;1.50;;
52043;SDS011;38053;53.100;6.078;2023-04-03T17:25:11;3.55;;;1.50;;
52043;SDS011;38053;53.100;6.078;2023-04-03T17:27:38;3.22;;;1.50;;
52043;SDS011;38053;53.100;6.078;2023-04-03T17:30:10;7.60;;;1.48;;
52043;SDS011;38053;53.100;6.078;2023-04-03T17:32:36;5.63;;;1.60;;
52043;SDS011;38053;53.100;6.078;2023-04-03T17:35:02;6.47;;;1.63;;
52043;SDS011;38053;53.100;6.078;2023-04-03T17:37:31;4.78;;;1.33;;
52043;SDS011;38053;53.100;6.078;2023-04-03T17:39:57;8.85;;;1.67;;
52043;SDS011;38053;53.100;6.078;2023-04-03T17:42:22;3.90;;;1.55;;
52043;SDS011;38053;53.100;6.078;2023-04-03T17:44:49;12.57;;;3.25;;
52043;SDS011;38053;53.100;6.078;2023-04-03T17:47:15;10.52;;;1.83;;
52043;SDS011;38053;53.100;6.078;2023-04-03T17:49:40;8.75;;;2.08;;
52043;SDS011;38053;53.100;6.078;2023-04-03T17:52:06;4.95;;;1.80;;
52043;SDS011;38053;53.100;6.078;2023-04-03T17:54:32;7.78;;;1.60;;
52043;SDS011;38053;53.100;6.078;2023-04-03T17:56:58;6.97;;;2.53;;
52043;SDS011;38053;53.100;6.078;2023-04-03T17:59:23;5.53;;;1.70;;
52043;SDS011;38053;53.100;6.078;2023-04-03T18:01:53;6.05;;;1.73;;
52043;SDS011;38053;53.100;6.078;2023-04-03T18:04:25;5.20;;;1.70;;
52043;SDS011;38053;53.100;6.078;2023-04-03T18:06:53;7.30;;;1.50;;
52043;SDS011;38053;53.100;6.078;2023-04-03T18:09:28;4.57;;;1.60;;
52043;SDS011;38053;53.100;6.078;2023-04-03T18:11:57;4.20;;;1.75;;